Orlik, Russia
Current Conditions -  °F | °C
As of 7:30 AM on Thursday 23 Oct 2014 (Local Time) from UIII Reporting Station
Haze Haze  
Wind Chill: 28°   Ceiling: 1100
Heat Index: 28°   Visibility: 1.8mi
Dew Point: 28°   Wind: 2mph
Humidity: 100%   Direction: NA
Pressure: 29.94"   Gusts: NA
Location:  52.51°N, 99.83°E
Report Text: UIII 222330Z VRB01MPS 3000 BR OVC011 M02/M02 Q1014 NOSIG RMKQFE716/0954 30190055
Loading
Personal Weather Stations






























Interactive Weather Map
Tropical Storm Tracking
New forecast layout! Learn more

10-Day Weather Forecast

Advertisements
Track Severe Weather on mobile